Time;durP1;ratioP1;P1;durP2;ratioP2;P2;SDS_P1;SDS_P2;PMS_P1;PMS_P2;Temp;Humidity;BMP_temperature;BMP_pressure;BME280_temperature;BME280_humidity;BME280_pressure;Samples;Min_cycle;Max_cycle;Signal;HPM_P1;HPM_P2
2023/05/03 00:00:48;;;;;;;1.25;0.70;;;6.50;99.90;;;;;;5074826;28;20511;-64
2023/05/03 00:03:13;;;;;;;2.78;0.80;;;6.00;99.90;;;;;;5074453;28;20102;-64
2023/05/03 00:05:39;;;;;;;1.25;0.80;;;6.00;99.90;;;;;;5074749;28;20112;-64
2023/05/03 00:08:04;;;;;;;4.68;0.88;;;6.00;99.90;;;;;;5074376;28;20077;-64
2023/05/03 00:10:30;;;;;;;2.20;0.68;;;6.10;99.90;;;;;;5074526;28;20427;-64
2023/05/03 00:12:56;;;;;;;2.58;0.60;;;7.00;1.00;;;;;;5073078;28;20510;-64
2023/05/03 00:15:21;;;;;;;1.50;0.70;;;6.10;99.90;;;;;;5072873;28;20044;-64
2023/05/03 00:17:47;;;;;;;1.92;0.80;;;6.10;99.90;;;;;;5074469;28;20557;-65
2023/05/03 00:20:14;;;;;;;1.77;0.88;;;6.40;99.90;;;;;;5074322;28;20052;-64
2023/05/03 00:22:39;;;;;;;2.22;0.80;;;6.20;99.90;;;;;;5073589;28;20040;-65
2023/05/03 00:25:07;;;;;;;4.13;0.82;;;6.20;99.90;;;;;;5074289;28;20029;-64
2023/05/03 00:27:33;;;;;;;2.15;0.98;;;6.20;99.90;;;;;;5074013;28;20448;-64
2023/05/03 00:29:59;;;;;;;2.30;1.00;;;6.30;99.90;;;;;;5074228;28;20125;-64
2023/05/03 00:32:24;;;;;;;0.80;0.60;;;6.70;99.90;;;;;;5074075;28;20040;-64
2023/05/03 00:34:55;;;;;;;3.90;0.93;;;6.00;99.90;;;;;;5074145;28;20048;-64
2023/05/03 00:37:21;;;;;;;0.93;0.73;;;6.20;99.90;;;;;;5074117;28;20037;-64
2023/05/03 00:39:47;;;;;;;2.10;0.98;;;6.10;99.90;;;;;;5073957;28;20082;-64
2023/05/03 00:42:12;;;;;;;1.25;0.88;;;6.10;99.90;;;;;;5072446;28;20068;-64
2023/05/03 00:44:38;;;;;;;1.88;0.85;;;6.00;99.90;;;;;;5074005;28;20454;-64
2023/05/03 00:47:03;;;;;;;1.58;0.95;;;6.00;99.90;;;;;;5072662;28;20067;-64
2023/05/03 00:49:29;;;;;;;1.02;0.88;;;5.90;99.90;;;;;;5073905;28;20502;-64
2023/05/03 00:51:58;;;;;;;1.75;1.08;;;5.90;99.90;;;;;;5073829;28;20487;-64
2023/05/03 00:54:25;;;;;;;6.10;0.98;;;5.90;99.90;;;;;;5073833;28;20142;-64
2023/05/03 00:56:51;;;;;;;3.38;0.85;;;5.90;99.90;;;;;;5072495;28;20549;-64
2023/05/03 00:59:17;;;;;;;1.23;1.10;;;5.80;1.00;;;;;;5073603;28;20059;-64
2023/05/03 01:01:48;;;;;;;1.38;1.00;;;5.80;99.90;;;;;;5073597;28;20086;-64
2023/05/03 01:04:15;;;;;;;6.10;1.27;;;5.80;99.90;;;;;;5073369;28;20036;-64
2023/05/03 01:07:04;;;;;;;2.60;1.17;;;5.70;93.50;;;;;;5073369;28;20376;-65
2023/05/03 01:09:38;;;;;;;1.23;0.90;;;5.70;99.90;;;;;;5069228;28;20048;-64
2023/05/03 01:12:17;;;;;;;2.22;1.00;;;5.70;99.90;;;;;;5073481;28;20439;-64
2023/05/03 01:15:03;;;;;;;1.10;0.80;;;5.70;1.00;;;;;;5073217;28;20044;-64
2023/05/03 01:17:54;;;;;;;1.48;1.10;;;5.70;73.80;;;;;;5073062;28;20059;-64
2023/05/03 01:20:24;;;;;;;3.33;1.00;;;5.70;1.00;;;;;;5071485;28;20076;-64
2023/05/03 01:23:11;;;;;;;4.30;0.93;;;5.70;99.90;;;;;;5073424;28;20090;-64
2023/05/03 01:25:36;;;;;;;1.92;1.00;;;5.70;99.90;;;;;;5071788;28;20033;-64
2023/05/03 01:28:02;;;;;;;1.48;1.00;;;5.70;99.90;;;;;;5073329;28;20381;-64
2023/05/03 01:30:31;;;;;;;3.47;1.25;;;5.80;99.90;;;;;;5073228;28;20082;-64
2023/05/03 01:33:11;;;;;;;1.52;1.13;;;5.80;1.00;;;;;;5072418;28;20048;-64
2023/05/03 01:35:46;;;;;;;2.05;1.08;;;5.80;1.00;;;;;;5073199;28;20131;-64
2023/05/03 01:38:12;;;;;;;2.60;1.50;;;5.80;1.00;;;;;;5072903;28;20043;-64
2023/05/03 01:40:46;;;;;;;0.90;0.90;;;5.80;1.00;;;;;;5073041;28;20067;-64
2023/05/03 01:43:14;;;;;;;1.63;0.93;;;5.80;99.90;;;;;;5073064;28;20037;-64
2023/05/03 01:45:41;;;;;;;3.10;1.17;;;5.80;8.10;;;;;;5072809;28;20040;-64
2023/05/03 01:48:11;;;;;;;3.58;1.45;;;5.90;99.90;;;;;;5073007;28;20450;-64
2023/05/03 01:50:36;;;;;;;5.68;1.27;;;6.80;99.90;;;;;;5073012;28;20500;-64
2023/05/03 01:53:02;;;;;;;2.40;1.10;;;5.90;1.00;;;;;;5072990;28;20073;-66
2023/05/03 01:55:27;;;;;;;2.88;1.42;;;5.90;82.70;;;;;;5072987;28;20396;-63
2023/05/03 01:57:53;;;;;;;3.63;1.08;;;6.50;99.90;;;;;;5072894;28;20032;-63
2023/05/03 02:00:18;;;;;;;3.42;1.35;;;5.80;99.90;;;;;;5072814;28;20546;-64
2023/05/03 02:02:44;;;;;;;1.77;1.00;;;5.90;1.00;;;;;;5072893;28;20041;-64
2023/05/03 02:05:11;;;;;;;3.72;1.40;;;5.80;99.90;;;;;;5072924;28;20481;-64
2023/05/03 02:07:37;;;;;;;3.03;1.30;;;5.80;1.00;;;;;;5072837;28;20064;-64
2023/05/03 02:10:07;;;;;;;1.83;1.45;;;5.90;99.90;;;;;;5072824;28;20091;-64
2023/05/03 02:12:32;;;;;;;6.05;1.85;;;5.90;1.00;;;;;;5071700;28;20109;-64
2023/05/03 02:14:58;;;;;;;1.60;1.30;;;5.80;1.00;;;;;;5071366;28;20041;-64
2023/05/03 02:17:26;;;;;;;2.45;1.20;;;5.90;99.90;;;;;;5072351;28;20056;-64
2023/05/03 02:19:52;;;;;;;2.38;1.35;;;5.80;99.90;;;;;;5071195;28;20130;-64
2023/05/03 02:22:18;;;;;;;1.98;1.60;;;5.80;1.00;;;;;;5072840;28;20029;-64
2023/05/03 02:24:44;;;;;;;2.00;1.23;;;5.90;99.90;;;;;;5072718;28;20036;-64
2023/05/03 02:27:09;;;;;;;4.28;1.60;;;5.80;99.90;;;;;;5072656;28;20496;-64
2023/05/03 02:29:35;;;;;;;4.93;1.45;;;5.90;1.00;;;;;;5072569;28;20044;-64
2023/05/03 02:32:04;;;;;;;1.35;1.05;;;5.80;99.90;;;;;;5072562;28;20098;-64
2023/05/03 02:34:29;;;;;;;2.55;1.35;;;5.80;99.90;;;;;;5072591;28;20377;-64
2023/05/03 02:36:55;;;;;;;2.63;0.90;;;5.80;99.90;;;;;;5072602;28;20086;-66
2023/05/03 02:39:21;;;;;;;1.42;1.15;;;5.80;99.90;;;;;;5072412;28;20044;-64
2023/05/03 02:41:46;;;;;;;2.55;1.30;;;5.80;99.90;;;;;;5072531;28;20101;-64
2023/05/03 02:44:12;;;;;;;1.58;1.15;;;6.50;99.90;;;;;;5071479;28;20040;-64
2023/05/03 02:46:39;;;;;;;2.10;1.27;;;5.70;1.00;;;;;;5076225;28;20492;-64
2023/05/03 02:49:04;;;;;;;3.88;1.10;;;5.70;99.90;;;;;;5076102;28;20045;-64
2023/05/03 02:51:31;;;;;;;3.10;1.17;;;5.70;1.00;;;;;;5075836;28;20461;-64
2023/05/03 02:53:56;;;;;;;1.58;0.98;;;5.70;1.00;;;;;;5076127;28;20043;-64
2023/05/03 02:56:25;;;;;;;2.70;1.20;;;5.70;99.90;;;;;;5075586;28;20480;-64
2023/05/03 02:58:51;;;;;;;1.38;1.10;;;5.70;99.90;;;;;;5074457;28;20412;-63
2023/05/03 03:01:17;;;;;;;2.55;1.30;;;5.70;99.90;;;;;;5075897;28;20055;-64
2023/05/03 03:03:42;;;;;;;2.13;1.13;;;5.70;44.50;;;;;;5075888;28;20044;-64
2023/05/03 03:06:08;;;;;;;1.63;1.30;;;5.70;1.00;;;;;;5075908;28;20040;-64
2023/05/03 03:08:35;;;;;;;1.60;1.20;;;5.70;99.90;;;;;;5075811;28;20038;-64
2023/05/03 03:11:01;;;;;;;2.08;1.08;;;5.70;99.90;;;;;;5075906;28;20079;-64
2023/05/03 03:13:26;;;;;;;4.25;1.55;;;5.70;99.90;;;;;;5075394;28;20072;-64
2023/05/03 03:15:52;;;;;;;2.45;1.52;;;5.70;1.00;;;;;;5075564;28;20122;-64
2023/05/03 03:18:17;;;;;;;5.78;1.20;;;5.70;99.90;;;;;;5075701;28;20041;-64
2023/05/03 03:20:43;;;;;;;4.40;1.38;;;5.70;99.90;;;;;;5074042;28;20044;-67
2023/05/03 03:23:08;;;;;;;1.80;1.20;;;5.70;75.20;;;;;;5075286;28;20496;-64
2023/05/03 03:25:34;;;;;;;3.10;1.20;;;5.80;1.00;;;;;;5075571;28;20082;-64
2023/05/03 03:28:00;;;;;;;2.63;1.67;;;5.70;1.00;;;;;;5075586;28;20033;-64
2023/05/03 03:30:25;;;;;;;3.10;1.30;;;5.80;99.90;;;;;;5075416;28;20047;-64
2023/05/03 03:32:51;;;;;;;2.22;1.17;;;5.80;99.90;;;;;;5075462;28;20177;-64
2023/05/03 03:35:18;;;;;;;1.10;1.00;;;5.80;1.00;;;;;;5075409;28;20404;-64
2023/05/03 03:37:43;;;;;;;3.13;1.20;;;5.80;99.90;;;;;;5075220;28;20046;-64
2023/05/03 03:40:10;;;;;;;1.38;1.02;;;5.80;99.90;;;;;;5075188;28;20036;-64
2023/05/03 03:42:36;;;;;;;2.28;1.00;;;5.80;99.90;;;;;;5075238;28;20049;-64
2023/05/03 03:45:02;;;;;;;1.48;1.10;;;5.80;69.30;;;;;;5073669;28;20051;-64
2023/05/03 03:47:28;;;;;;;2.67;1.33;;;5.80;1.00;;;;;;5075225;28;20080;-64
2023/05/03 03:49:53;;;;;;;2.22;1.10;;;5.80;99.90;;;;;;5073869;28;20861;-64
2023/05/03 03:52:19;;;;;;;1.42;1.13;;;5.80;99.90;;;;;;5075036;28;20039;-63
2023/05/03 03:54:45;;;;;;;1.92;0.98;;;5.80;99.90;;;;;;5075026;28;20044;-64
2023/05/03 03:57:10;;;;;;;1.27;0.80;;;5.90;99.90;;;;;;5074030;28;20041;-64
2023/05/03 03:59:36;;;;;;;3.25;1.27;;;5.90;1.00;;;;;;5074603;28;20059;-64
2023/05/03 04:02:01;;;;;;;1.55;0.95;;;5.90;1.00;;;;;;5074787;28;20093;-64
2023/05/03 04:04:27;;;;;;;5.78;0.93;;;6.10;5.60;;;;;;5074846;28;20044;-65
2023/05/03 04:06:53;;;;;;;3.50;1.50;;;5.90;1.00;;;;;;5074774;28;20063;-64
2023/05/03 04:09:18;;;;;;;2.05;1.30;;;6.00;95.10;;;;;;5073201;28;20048;-64
2023/05/03 04:11:45;;;;;;;1.92;1.20;;;6.20;99.90;;;;;;5074355;28;20399;-64
2023/05/03 04:14:10;;;;;;;1.63;1.00;;;6.20;99.90;;;;;;5074543;28;20044;-64
2023/05/03 04:16:36;;;;;;;3.83;1.38;;;6.20;99.90;;;;;;5074242;28;20048;-64
2023/05/03 04:19:01;;;;;;;3.92;1.30;;;6.20;2.10;;;;;;5074487;28;20477;-64
2023/05/03 04:21:27;;;;;;;1.48;1.00;;;7.00;99.90;;;;;;5074396;28;20032;-64
2023/05/03 04:23:53;;;;;;;2.15;1.30;;;6.20;91.70;;;;;;5072912;28;20504;-64
2023/05/03 04:26:23;;;;;;;2.42;1.10;;;6.30;99.90;;;;;;5074393;28;20094;-64
2023/05/03 04:28:50;;;;;;;4.90;1.27;;;6.30;1.00;;;;;;5074329;28;20123;-64
2023/05/03 04:31:18;;;;;;;1.58;1.20;;;6.60;99.90;;;;;;5074155;28;20423;-64
2023/05/03 04:33:44;;;;;;;2.40;1.40;;;6.40;60.00;;;;;;5073863;28;20044;-64
2023/05/03 04:36:14;;;;;;;6.43;1.45;;;6.40;1.00;;;;;;5073872;28;20040;-64
2023/05/03 04:38:42;;;;;;;1.38;1.10;;;6.40;1.00;;;;;;5073799;28;20508;-64
2023/05/03 04:41:08;;;;;;;1.63;1.13;;;6.40;99.90;;;;;;5072520;28;20075;-64
2023/05/03 04:43:34;;;;;;;5.10;1.30;;;6.60;99.90;;;;;;5074042;28;20044;-64
2023/05/03 04:46:02;;;;;;;6.50;1.40;;;6.50;28.10;;;;;;5073721;28;20041;-64
2023/05/03 04:48:28;;;;;;;2.03;1.20;;;6.60;1.00;;;;;;5073953;28;20396;-64
2023/05/03 04:50:53;;;;;;;0.80;0.80;;;6.50;99.90;;;;;;5073545;28;20048;-64
2023/05/03 04:53:19;;;;;;;1.50;1.00;;;6.40;99.90;;;;;;5073738;28;20036;-64
2023/05/03 04:55:46;;;;;;;1.83;0.82;;;7.10;99.90;;;;;;5073781;28;20396;-64
2023/05/03 04:58:12;;;;;;;1.52;1.08;;;6.50;99.90;;;;;;5073361;28;20053;-64
2023/05/03 05:00:37;;;;;;;1.15;1.00;;;6.40;99.90;;;;;;5073293;28;20041;-64
2023/05/03 05:03:05;;;;;;;3.50;1.15;;;6.70;99.90;;;;;;5073633;28;20025;-64
2023/05/03 05:05:30;;;;;;;2.38;0.88;;;6.70;99.90;;;;;;5073577;28;20036;-64
2023/05/03 05:07:57;;;;;;;1.73;0.98;;;6.80;99.90;;;;;;5071890;28;20036;-64
2023/05/03 05:10:22;;;;;;;0.93;0.70;;;6.80;99.90;;;;;;5073556;28;20056;-64
2023/05/03 05:12:48;;;;;;;1.20;0.95;;;6.90;1.00;;;;;;5073396;28;20094;-64
2023/05/03 05:15:13;;;;;;;1.42;0.80;;;6.90;99.90;;;;;;5073362;28;20036;-64
2023/05/03 05:17:39;;;;;;;1.55;1.17;;;8.10;99.90;;;;;;5071747;28;20446;-64
2023/05/03 05:20:07;;;;;;;2.55;1.20;;;7.00;99.90;;;;;;5073214;28;20044;-64
2023/05/03 05:22:33;;;;;;;2.50;1.50;;;7.10;99.90;;;;;;5072052;28;20090;-64
2023/05/03 05:24:59;;;;;;;1.70;1.30;;;7.10;99.90;;;;;;5073375;28;20032;-64
2023/05/03 05:27:25;;;;;;;3.42;1.10;;;7.20;99.90;;;;;;5072977;28;20149;-64
2023/05/03 05:29:51;;;;;;;1.73;0.90;;;8.30;99.90;;;;;;5073237;28;20047;-64
2023/05/03 05:32:16;;;;;;;1.20;0.95;;;7.30;99.90;;;;;;5071619;28;20044;-64
2023/05/03 05:34:43;;;;;;;2.65;1.20;;;7.30;99.90;;;;;;5072877;28;20044;-65
2023/05/03 05:37:09;;;;;;;2.15;1.10;;;7.40;99.90;;;;;;5071628;28;20047;-65
2023/05/03 05:39:35;;;;;;;4.50;1.27;;;7.40;99.90;;;;;;5073007;28;20476;-64
2023/05/03 05:42:00;;;;;;;1.58;1.00;;;7.00;99.90;;;;;;5072819;28;20503;-64
2023/05/03 05:44:26;;;;;;;1.67;0.95;;;7.60;26.40;;;;;;5072927;28;20039;-64
2023/05/03 05:46:51;;;;;;;2.83;1.27;;;7.60;1.00;;;;;;5073045;28;20440;-63
2023/05/03 05:49:17;;;;;;;1.35;1.10;;;7.60;99.90;;;;;;5072985;28;20105;-63
2023/05/03 05:51:43;;;;;;;3.70;1.33;;;7.60;99.90;;;;;;5073006;28;20036;-64
2023/05/03 05:54:09;;;;;;;1.23;1.00;;;7.70;99.90;;;;;;5072924;28;20050;-63
2023/05/03 05:56:35;;;;;;;1.58;1.00;;;7.80;1.00;;;;;;5072867;28;20037;-63
2023/05/03 05:59:03;;;;;;;3.10;1.10;;;7.80;1.00;;;;;;5072771;28;20036;-63
2023/05/03 06:01:30;;;;;;;2.63;1.00;;;7.90;99.90;;;;;;5072769;28;20072;-64
2023/05/03 06:03:56;;;;;;;1.30;1.00;;;8.00;99.90;;;;;;5072791;28;20511;-64
2023/05/03 06:06:22;;;;;;;1.15;0.80;;;8.10;99.90;;;;;;5071491;28;20040;-63
2023/05/03 06:08:50;;;;;;;6.75;1.23;;;8.10;99.90;;;;;;5072758;28;20049;-63
2023/05/03 06:11:17;;;;;;;0.90;0.70;;;8.20;99.90;;;;;;5071635;28;20041;-64
2023/05/03 06:13:42;;;;;;;2.30;0.80;;;8.20;99.90;;;;;;5072700;28;20036;-63
2023/05/03 06:16:09;;;;;;;1.23;0.73;;;8.30;99.90;;;;;;5072215;28;20061;-64
2023/05/03 06:18:35;;;;;;;1.92;0.70;;;8.30;99.90;;;;;;5072382;28;20047;-63
2023/05/03 06:21:00;;;;;;;0.82;0.60;;;8.30;99.90;;;;;;5076096;28;20477;-67
2023/05/03 06:23:27;;;;;;;1.73;0.80;;;8.40;99.90;;;;;;5074955;28;20044;-67
2023/05/03 06:25:52;;;;;;;2.53;0.80;;;8.40;99.90;;;;;;5076466;28;20132;-67
2023/05/03 06:28:18;;;;;;;0.90;0.57;;;8.50;59.50;;;;;;5074907;28;20064;-64
2023/05/03 06:30:50;;;;;;;1.65;0.50;;;8.60;32.10;;;;;;5074971;28;20415;-66
2023/05/03 06:33:16;;;;;;;1.80;0.68;;;8.60;19.60;;;;;;5076394;28;20037;-64
2023/05/03 06:35:42;;;;;;;2.70;0.80;;;8.60;10.50;;;;;;5076424;28;20040;-63
2023/05/03 06:38:10;;;;;;;0.98;0.60;;;8.60;1.00;;;;;;5075032;28;20044;-64
2023/05/03 06:40:36;;;;;;;1.13;1.00;;;8.70;1.00;;;;;;5076282;28;20044;-64
2023/05/03 06:43:01;;;;;;;1.60;0.70;;;8.70;1.00;;;;;;5076324;28;20511;-65
2023/05/03 06:45:27;;;;;;;0.75;0.47;;;8.70;1.00;;;;;;5074752;28;20068;-64
2023/05/03 06:47:52;;;;;;;0.50;0.43;;;8.70;1.00;;;;;;5075917;28;20420;-63
2023/05/03 06:50:19;;;;;;;1.83;0.75;;;8.70;1.00;;;;;;5075961;28;20087;-63
2023/05/03 06:52:45;;;;;;;3.88;0.70;;;8.70;1.00;;;;;;5074646;28;20048;-64
2023/05/03 06:55:11;;;;;;;0.50;0.50;;;8.70;1.00;;;;;;5075819;28;20047;-63
2023/05/03 06:57:37;;;;;;;1.13;0.57;;;8.80;1.00;;;;;;5076025;28;20037;-64
2023/05/03 07:00:06;;;;;;;0.90;0.80;;;8.90;1.00;;;;;;5075910;28;20076;-64
2023/05/03 07:02:32;;;;;;;1.25;0.88;;;8.90;1.00;;;;;;5075971;28;20419;-64
2023/05/03 07:04:58;;;;;;;3.33;0.90;;;9.00;1.00;;;;;;5075940;28;20400;-64
2023/05/03 07:07:23;;;;;;;0.80;0.63;;;9.10;1.00;;;;;;5075760;28;20043;-64
2023/05/03 07:09:49;;;;;;;1.58;0.90;;;9.10;1.00;;;;;;5075806;28;20067;-64
2023/05/03 07:12:15;;;;;;;1.20;0.80;;;9.10;1.00;;;;;;5074216;28;20382;-64
2023/05/03 07:14:41;;;;;;;1.48;0.73;;;9.20;1.00;;;;;;5075406;28;20457;-65
2023/05/03 07:17:07;;;;;;;1.30;0.68;;;9.20;1.00;;;;;;5075238;28;20127;-64
2023/05/03 07:19:33;;;;;;;2.47;0.65;;;9.30;1.00;;;;;;5075576;28;20052;-67
2023/05/03 07:21:59;;;;;;;2.42;0.93;;;9.40;1.00;;;;;;5075173;28;20476;-67
2023/05/03 07:24:24;;;;;;;1.13;0.57;;;9.40;99.90;;;;;;5074132;28;20035;-64
2023/05/03 07:26:51;;;;;;;1.50;0.70;;;9.40;99.90;;;;;;5075479;28;20396;-64
2023/05/03 07:29:17;;;;;;;1.42;0.85;;;9.50;99.90;;;;;;5075435;28;20416;-64
2023/05/03 07:31:43;;;;;;;1.23;0.90;;;9.50;99.90;;;;;;5074025;28;20045;-64
2023/05/03 07:34:09;;;;;;;4.88;0.95;;;9.60;99.90;;;;;;5075401;28;20489;-64
2023/05/03 07:36:35;;;;;;;1.02;0.57;;;9.60;99.90;;;;;;5075365;28;20040;-64
2023/05/03 07:39:01;;;;;;;0.93;0.73;;;9.70;99.90;;;;;;5075192;28;20052;-64
2023/05/03 07:41:26;;;;;;;0.50;0.50;;;9.70;99.90;;;;;;5075252;28;20028;-64
2023/05/03 07:43:53;;;;;;;0.82;0.50;;;9.80;99.90;;;;;;5075171;28;20040;-65
2023/05/03 07:46:19;;;;;;;2.70;0.57;;;9.80;99.90;;;;;;5075213;28;20041;-64
2023/05/03 07:48:45;;;;;;;0.50;0.50;;;9.70;99.90;;;;;;5075156;28;20037;-64
2023/05/03 07:51:10;;;;;;;0.95;0.90;;;9.80;99.90;;;;;;5073860;28;20130;-64
2023/05/03 07:53:38;;;;;;;0.52;0.52;;;9.80;99.90;;;;;;5075001;28;20115;-64
2023/05/03 07:56:04;;;;;;;0.75;0.63;;;9.80;99.90;;;;;;5074896;28;20080;-64
2023/05/03 07:58:30;;;;;;;0.70;0.70;;;9.70;99.90;;;;;;5074943;28;20036;-64
2023/05/03 08:00:56;;;;;;;1.35;0.80;;;9.70;99.90;;;;;;5074782;28;20041;-64
2023/05/03 08:03:22;;;;;;;0.90;0.68;;;9.70;99.90;;;;;;5074482;28;20091;-64
2023/05/03 08:05:48;;;;;;;1.00;0.70;;;9.70;99.90;;;;;;5074802;28;20058;-64
2023/05/03 08:08:14;;;;;;;1.08;0.80;;;9.80;99.90;;;;;;5073390;28;20059;-64
2023/05/03 08:10:40;;;;;;;1.13;0.70;;;9.80;99.90;;;;;;5074647;28;20403;-64
2023/05/03 08:13:06;;;;;;;0.90;0.80;;;9.80;99.90;;;;;;5074614;28;20040;-64
2023/05/03 08:15:32;;;;;;;2.47;1.02;;;9.70;99.90;;;;;;5074443;28;20036;-64
2023/05/03 08:17:58;;;;;;;2.85;1.05;;;9.90;99.90;;;;;;5074497;28;20059;-64
2023/05/03 08:20:26;;;;;;;3.90;0.95;;;9.90;99.90;;;;;;5074035;28;20084;-64
2023/05/03 08:22:55;;;;;;;1.63;0.70;;;9.90;99.90;;;;;;5074464;28;20040;-64
2023/05/03 08:25:22;;;;;;;1.13;0.77;;;9.80;99.90;;;;;;5074419;28;20044;-65
2023/05/03 08:27:48;;;;;;;1.08;0.80;;;10.10;99.90;;;;;;5072778;28;20045;-64
2023/05/03 08:30:14;;;;;;;1.08;0.98;;;10.00;99.90;;;;;;5074240;28;20177;-64
2023/05/03 08:32:40;;;;;;;1.67;0.80;;;10.20;99.90;;;;;;5072723;28;20408;-65
2023/05/03 08:35:06;;;;;;;0.80;0.80;;;10.20;99.90;;;;;;5073882;28;20041;-64
2023/05/03 08:37:38;;;;;;;3.03;1.00;;;10.30;99.90;;;;;;5074162;28;20036;-64
2023/05/03 08:40:05;;;;;;;2.35;1.20;;;10.70;99.90;;;;;;5073711;28;20433;-64
2023/05/03 08:42:32;;;;;;;1.83;1.15;;;10.40;99.90;;;;;;5073594;28;20469;-64
2023/05/03 08:44:58;;;;;;;1.40;0.98;;;10.30;99.90;;;;;;5073785;28;20036;-64
2023/05/03 08:47:25;;;;;;;1.13;1.02;;;10.30;99.90;;;;;;5073887;28;20043;-64
2023/05/03 08:49:52;;;;;;;1.17;0.93;;;10.40;99.90;;;;;;5073895;28;20037;-64
2023/05/03 08:52:20;;;;;;;1.27;1.00;;;10.30;99.90;;;;;;5073848;28;20036;-64
2023/05/03 08:54:48;;;;;;;0.80;0.80;;;10.40;99.90;;;;;;5073798;28;20047;-64
2023/05/03 08:57:15;;;;;;;1.20;0.85;;;10.40;99.90;;;;;;5073408;28;20064;-65
2023/05/03 08:59:48;;;;;;;1.35;0.95;;;10.50;99.90;;;;;;5072456;28;20389;-65
2023/05/03 09:02:15;;;;;;;1.63;1.00;;;10.50;99.90;;;;;;5073590;28;20075;-64
2023/05/03 09:04:40;;;;;;;1.15;0.73;;;10.60;99.90;;;;;;5072442;28;20117;-64
2023/05/03 09:07:10;;;;;;;4.00;0.80;;;10.60;99.90;;;;;;5072256;28;20045;-65
2023/05/03 09:09:36;;;;;;;1.00;0.90;;;10.60;99.90;;;;;;5072079;28;20419;-64
2023/05/03 09:12:03;;;;;;;1.67;0.90;;;10.60;99.90;;;;;;5073473;28;20033;-64
2023/05/03 09:14:29;;;;;;;1.15;1.00;;;10.80;99.90;;;;;;5073190;28;20036;-64
2023/05/03 09:16:55;;;;;;;1.75;1.17;;;10.80;99.90;;;;;;5073074;28;20583;-68
2023/05/03 09:19:20;;;;;;;1.27;1.05;;;11.00;99.90;;;;;;5073297;28;20123;-64
2023/05/03 09:21:47;;;;;;;1.10;0.90;;;10.70;99.90;;;;;;5073331;28;20407;-64
2023/05/03 09:24:20;;;;;;;2.25;1.00;;;11.10;99.90;;;;;;5073276;28;20116;-64
2023/05/03 09:26:48;;;;;;;1.65;0.98;;;11.10;99.90;;;;;;5071958;28;20084;-63
2023/05/03 09:29:30;;;;;;;1.40;1.13;;;11.00;99.90;;;;;;5073209;28;20051;-63
2023/05/03 09:32:02;;;;;;;1.85;0.80;;;11.20;99.90;;;;;;5073157;28;20121;-64
2023/05/03 09:34:28;;;;;;;1.30;0.98;;;11.10;99.90;;;;;;5073173;28;20044;-64
2023/05/03 09:36:54;;;;;;;4.68;1.00;;;11.80;99.90;;;;;;5073094;28;20507;-64
2023/05/03 09:39:19;;;;;;;0.88;0.82;;;11.40;99.90;;;;;;5072744;28;20400;-64
2023/05/03 09:41:45;;;;;;;1.25;0.90;;;12.40;99.90;;;;;;5072822;28;20454;-64
2023/05/03 09:44:11;;;;;;;2.40;1.08;;;11.70;99.90;;;;;;5072765;28;20040;-64
2023/05/03 09:46:37;;;;;;;1.65;0.98;;;11.70;99.90;;;;;;5071577;28;20094;-64
2023/05/03 09:49:04;;;;;;;1.88;1.10;;;11.70;99.90;;;;;;5072995;28;20039;-63
2023/05/03 09:51:31;;;;;;;2.17;1.00;;;11.80;99.90;;;;;;5073076;28;20054;-65
2023/05/03 09:53:58;;;;;;;1.38;0.80;;;11.80;99.90;;;;;;5071913;28;20036;-65
2023/05/03 09:56:27;;;;;;;1.05;0.90;;;12.00;99.90;;;;;;5071625;28;20048;-65
2023/05/03 09:58:53;;;;;;;1.00;0.65;;;11.90;99.90;;;;;;5072798;28;20427;-65
2023/05/03 10:01:21;;;;;;;1.90;1.00;;;12.00;99.90;;;;;;5072549;28;20052;-65
2023/05/03 10:03:49;;;;;;;0.85;0.75;;;12.30;99.90;;;;;;5072850;28;20048;-65
2023/05/03 10:06:26;;;;;;;1.15;0.90;;;11.90;99.90;;;;;;5072832;28;20407;-64
2023/05/03 10:09:04;;;;;;;0.73;0.68;;;11.90;99.90;;;;;;5072583;28;20101;-63
2023/05/03 10:11:33;;;;;;;1.27;1.00;;;11.70;99.90;;;;;;5073112;28;20480;-64
2023/05/03 10:13:59;;;;;;;1.77;0.75;;;11.80;99.90;;;;;;5072741;28;20051;-64
2023/05/03 10:16:37;;;;;;;3.35;1.00;;;11.90;99.90;;;;;;5072479;28;20048;-64
2023/05/03 10:19:07;;;;;;;1.00;0.80;;;11.90;99.90;;;;;;5072669;28;20088;-64
2023/05/03 10:21:43;;;;;;;1.13;0.70;;;11.90;99.90;;;;;;5072718;28;20107;-64
2023/05/03 10:24:11;;;;;;;2.55;1.33;;;11.80;99.90;;;;;;5071397;28;20044;-64
2023/05/03 10:26:39;;;;;;;1.38;0.88;;;11.90;99.90;;;;;;5072626;28;20036;-64
2023/05/03 10:29:06;;;;;;;2.45;0.75;;;12.80;99.90;;;;;;5072130;28;20044;-64
2023/05/03 10:31:45;;;;;;;4.18;0.95;;;12.00;99.90;;;;;;5072516;28;20048;-64
2023/05/03 10:34:34;;;;;;;1.60;0.90;;;12.00;99.90;;;;;;5072302;28;20445;-64
2023/05/03 10:37:10;;;;;;;1.75;0.93;;;12.00;99.90;;;;;;5069315;28;20045;-64
2023/05/03 10:39:36;;;;;;;1.90;0.88;;;11.70;99.90;;;;;;5071006;28;20044;-64
2023/05/03 10:42:06;;;;;;;5.05;0.88;;;11.80;99.90;;;;;;5071005;28;20040;-64
2023/05/03 10:44:50;;;;;;;0.70;0.67;;;11.90;99.90;;;;;;5072704;28;20472;-64
2023/05/03 10:47:16;;;;;;;1.45;0.93;;;12.10;99.90;;;;;;5072403;28;20051;-64
2023/05/03 10:49:42;;;;;;;1.70;0.95;;;12.10;99.90;;;;;;5072497;28;20048;-64
2023/05/03 10:52:42;;;;;;;4.78;0.80;;;12.30;99.90;;;;;;5072407;28;20044;-64
2023/05/03 10:55:19;;;;;;;1.88;0.90;;;12.20;99.90;;;;;;5072455;28;20048;-64
2023/05/03 10:57:47;;;;;;;1.48;0.95;;;12.00;99.90;;;;;;5071126;28;20040;-64
2023/05/03 11:00:18;;;;;;;2.08;1.20;;;12.10;99.90;;;;;;5070659;28;20076;-64
2023/05/03 11:03:34;;;;;;;1.38;0.88;;;12.30;99.90;;;;;;5072029;28;20047;-64
2023/05/03 11:06:01;;;;;;;1.73;1.30;;;12.10;99.90;;;;;;5051458;28;20162;-64
2023/05/03 11:08:29;;;;;;;1.48;0.82;;;12.00;99.90;;;;;;5053429;28;20045;-64
2023/05/03 11:10:59;;;;;;;2.55;1.10;;;12.00;99.90;;;;;;5066196;28;20454;-64
2023/05/03 11:13:26;;;;;;;1.10;1.00;;;12.40;99.90;;;;;;5074178;28;20430;-64
2023/05/03 11:15:55;;;;;;;1.10;0.82;;;12.50;99.90;;;;;;5075570;28;20048;-64
2023/05/03 11:18:22;;;;;;;1.35;0.90;;;12.60;99.90;;;;;;5074150;28;20116;-65
2023/05/03 11:20:48;;;;;;;4.07;1.10;;;13.50;99.90;;;;;;5075594;28;20044;-64
2023/05/03 11:23:14;;;;;;;0.93;0.63;;;12.50;99.90;;;;;;5075556;28;20082;-64
2023/05/03 11:25:40;;;;;;;1.67;1.00;;;12.70;99.90;;;;;;5075231;28;20103;-64
2023/05/03 11:28:06;;;;;;;5.18;1.20;;;12.80;99.90;;;;;;5075413;28;20463;-64
2023/05/03 11:30:33;;;;;;;1.58;0.82;;;12.90;99.90;;;;;;5075432;28;20033;-65
2023/05/03 11:33:00;;;;;;;1.38;0.85;;;13.00;99.90;;;;;;5073927;28;20051;-66
2023/05/03 11:35:28;;;;;;;1.05;0.93;;;13.00;99.90;;;;;;5075436;28;20048;-65
2023/05/03 11:37:55;;;;;;;3.22;0.88;;;12.90;99.90;;;;;;5075382;28;20044;-65
2023/05/03 11:40:21;;;;;;;4.28;1.08;;;12.80;99.90;;;;;;5075248;28;20333;-65
2023/05/03 11:42:59;;;;;;;1.80;0.90;;;12.80;99.90;;;;;;5074927;28;20044;-65
2023/05/03 11:45:45;;;;;;;1.40;0.70;;;12.80;99.90;;;;;;5074976;28;20051;-65
2023/05/03 11:48:12;;;;;;;1.40;0.80;;;12.90;99.90;;;;;;5074911;28;20481;-65
2023/05/03 11:50:54;;;;;;;2.10;0.90;;;12.80;99.90;;;;;;5075141;28;20162;-65
2023/05/03 11:53:24;;;;;;;3.58;1.10;;;12.80;99.90;;;;;;5075027;28;20484;-65
2023/05/03 11:55:54;;;;;;;1.02;0.85;;;12.70;99.90;;;;;;5074758;28;20062;-64
2023/05/03 11:58:26;;;;;;;1.17;0.88;;;12.80;99.90;;;;;;5075089;28;20047;-65
2023/05/03 12:00:56;;;;;;;1.35;1.00;;;13.20;99.90;;;;;;5074881;28;20110;-65
2023/05/03 12:03:25;;;;;;;1.38;0.93;;;13.80;99.90;;;;;;5074901;28;20116;-65
2023/05/03 12:05:51;;;;;;;1.40;0.90;;;13.80;99.90;;;;;;5074841;28;20033;-65
2023/05/03 12:08:20;;;;;;;1.25;0.90;;;13.10;99.90;;;;;;5073261;28;20408;-65
2023/05/03 12:10:47;;;;;;;1.40;1.00;;;13.20;99.90;;;;;;5074398;28;20044;-65
2023/05/03 12:13:13;;;;;;;1.05;0.90;;;13.00;99.90;;;;;;5073155;28;20076;-65
2023/05/03 12:15:39;;;;;;;1.48;0.90;;;13.20;99.90;;;;;;5074464;28;20510;-65
2023/05/03 12:18:10;;;;;;;1.20;0.75;;;13.10;99.90;;;;;;5073781;28;20174;-65
2023/05/03 12:20:37;;;;;;;1.67;0.90;;;13.40;99.90;;;;;;5074552;28;20493;-65
2023/05/03 12:23:07;;;;;;;1.08;0.88;;;13.40;99.90;;;;;;5074207;28;20052;-65
2023/05/03 12:25:35;;;;;;;3.28;0.90;;;13.30;99.90;;;;;;5056499;28;20039;-65
2023/05/03 12:28:05;;;;;;;1.17;0.70;;;13.40;99.90;;;;;;5074381;28;20473;-64
2023/05/03 12:30:31;;;;;;;3.72;1.08;;;13.40;99.90;;;;;;5073940;28;20053;-63
2023/05/03 12:32:57;;;;;;;2.00;1.08;;;13.40;99.90;;;;;;5074261;28;20041;-64
2023/05/03 12:35:24;;;;;;;1.10;0.82;;;13.30;99.90;;;;;;5074165;28;20400;-64
2023/05/03 12:37:50;;;;;;;1.48;0.95;;;13.60;99.90;;;;;;5074137;28;20382;-65
2023/05/03 12:40:18;;;;;;;1.92;1.20;;;13.40;99.90;;;;;;5073936;28;20059;-65
2023/05/03 12:42:44;;;;;;;1.23;0.98;;;13.40;99.90;;;;;;5073787;28;20076;-64
2023/05/03 12:45:12;;;;;;;1.00;0.90;;;13.40;99.90;;;;;;5072727;28;20082;-64
2023/05/03 12:47:37;;;;;;;1.83;1.00;;;13.30;99.90;;;;;;5073958;28;20037;-65
2023/05/03 12:50:04;;;;;;;2.10;1.20;;;14.40;99.90;;;;;;5072382;28;20476;-65
2023/05/03 12:52:33;;;;;;;2.22;1.10;;;13.40;99.90;;;;;;5073797;28;20063;-64
2023/05/03 12:54:58;;;;;;;1.42;1.05;;;14.00;99.90;;;;;;5073811;28;20094;-64
2023/05/03 12:57:24;;;;;;;1.75;1.00;;;13.30;99.90;;;;;;5073690;28;20036;-64